AirNav   Everest Fuels
 
 1117 users online  

3CL0 UC Davis Medical Center Tower II Heliport
Sacramento, California, USA

GOING TO SACRAMENTO?


FAA INFORMATION EFFECTIVE 07 NOVEMBER 2019

Location

FAA Identifier: 3CL0
Lat/Long: 38-33-17.5330N 121-27-19.5700W
38-33.292217N 121-27.326167W
38.5548703,-121.4554361
(estimated)
Elevation: 236 ft. / 72 m (estimated)
Variation: 15E (2000)
From city: 1 mile N of SACRAMENTO, CA
Time zone: UTC -8 (UTC -7 during Daylight Saving Time)
Zip code: 95817

Heliport Operations

Heliport use: Private use, MEDICAL USE.
Activation date: 09/1999
Control tower: no
ARTCC: OAKLAND CENTER
FSS: RANCHO MURIETA FLIGHT SERVICE STATION
NOTAMs facility: FDC (NOTAM-D service not available)
Attendance: CONTINUOUS
Wind indicator: lighted
Segmented circle: no
Lights: SS-SR
Beacon: white-green-yellow (heliport)
Operates sunset to sunrise.

Heliport Communications

NORCAL APPROACH: 127.4 [OPR 1500-0700Z++ DAILY, CLSD HOL, OT CTC SOCAL APP/DEP]
NORCAL DEPARTURE: 127.4 [OPR 1500-0700Z++ DAILY, CLSD HOL, OT CTC SOCAL APP/DEP]
HIPUK DP: 127.4
WX ASOS at SAC (3 nm SW): PHONE 916-421-0923
WX AWOS-3 at MCC (7 nm N): 125.975 (916-641-1272)
WX AWOS-3 at MHR (7 nm E): 118.325 (916-366-3371)
WX ASOS at SMF (11 nm NW): PHONE 916-649-3996
WX AWOS-3 at EDU (16 nm W): 119.025 (530-754-6839)
WX AWOS-3 at DWA (19 nm W): 125.775 (530-750-2759)

Nearby radio navigation aids

VOR radial/distance  VOR name  Freq  Var
MCCr183/7.2MC CLELLAN VOR/DME109.2017E
SACr017/8.1SACRAMENTO VORTAC115.2017E
MYVr154/33.1MARYSVILLE VOR/DME110.8016E
HNWr236/34.6HANGTOWN VOR/DME115.5017E
LINr307/35.8LINDEN VOR/DME114.8017E

Heliport Services

Runway Information

Helipad H1

Dimensions: 40 x 40 ft. / 12 x 12 m
Surface: mats
Runway edge lights: PERI
Latitude: 38-33.295000N
Longitude: 121-27.333583W
Elevation: 236.0 ft.
Traffic pattern: leftleft

Helipad H2

Dimensions: 40 x 40 ft. / 12 x 12 m
Surface: mats
Runway edge lights: PERI
Latitude: 38-33.292500N
Longitude: 121-27.320083W
Elevation: 236.0 ft.
Traffic pattern: leftleft

Heliport Ownership and Management from official FAA records

Ownership: Privately-owned
Owner: UC DAVIS MEDICAL CENTER
2315 STOCKTON BLVD
SACRAMENTO, CA 95817
Phone 916-734-2363
DEBBIE TRAINER, MGR ER
Manager: CHARLES WITCHER
4800 2ND AVE
SACRAMENTO, CA 95817
Phone 916-734-5508

Additional Remarks

FOR CD CTC NORCAL APCH AT 916-361-6874.

Instrument Procedures

There are no published instrument procedures at 3CL0.

Some nearby airports with instrument procedures:

KSAC - Sacramento Executive Airport (3 nm SW)
KMCC - Mc Clellan Airfield (7 nm N)
KMHR - Sacramento Mather Airport (7 nm E)
KSMF - Sacramento International Airport (11 nm NW)
KEDU - University Airport (16 nm W)
KDWA - Yolo County Airport (19 nm W)
 
Loc | Ops | Rwys | IFR | FBO | Links
Com | Nav | Svcs | Stats | Notes
Area around 3CL0 (UC Davis Medical Center Tower II Heliport)
 
Road maps at: MapQuest Bing Google
 
Aerial photo
No photo
 
Sectional chart

 
Airport distance calculator
Flying to UC Davis Medical Center Tower II Heliport? Find the distance to fly.

From to 3CL0

Sunrise and sunset
Times for 12-Nov-2019
 Local
(UTC-8)
 Zulu
(UTC)
Morning civil twilight06:1714:17
Sunrise06:4614:46
Sunset16:5400:54
Evening civil twilight17:2301:23

Current date and time
Zulu (UTC)  12-Nov-2019 22:39:14
Local (UTC-8)  12-Nov-2019 14:39:14
 
METAR
KSAC 
4nm SW 
122153Z 36007KT 10SM CLR 24/07 A3004 RMK AO2 SLP171 T02390067 $
KMCC 
7nm N 
122215Z AUTO 33005KT 10SM CLR 23/06 A3005 RMK AO2
KMHR 
8nm E 
122155Z 32006KT 10SM SKC 23/05 A3003
KSMF 
11nm NW 
122153Z 31006KT 10SM BKN250 23/07 A3004 RMK AO2 SLP170 T02280072
KEDU 
16nm W 
122215Z AUTO 01005KT 10SM CLR 23/07 A3004 RMK AO1
TAF
KSAC 
4nm SW 
121734Z 1218/1318 VRB04KT P6SM BKN250 TEMPO 1314/1318 4SM HZ
KMCC 
7nm N 
121734Z 1218/1318 VRB04KT P6SM BKN250 TEMPO 1314/1318 5SM HZ
KMHR 
8nm E 
121734Z 1218/1318 VRB04KT P6SM BKN250 TEMPO 1314/1318 5SM HZ
KSMF 
11nm NW 
121734Z 1218/1318 VRB04KT P6SM BKN250 TEMPO 1314/1318 5SM HZ
NOTAMs
Click for the latest NOTAMs
NOTAMs are issued by the DoD/FAA and will open in a separate window not controlled by AirNav.

 

 
 

Would you like to see your business listed on this page?

 If your business provides an interesting product or service to pilots, flight crews, aircraft, or users of the UC Davis Medical Center Tower II Heliport, you should consider listing it here.  To start the listing process, click on the button below
 
Add a business
 

Other Pages about UC Davis Medical Center Tower II Heliport

Update a link
 
Copyright © AirNav, LLC. All rights reserved. Privacy Policy  Contact